Latest Coastal Weather Observations for Lake Macquarie - Cooranbong

IDN60701

Issued at 4:15 pm EST Saturday 30 August 2014 (issued every 10 minutes, with the page automatically refreshed every 10 minutes)

About coastal observations | Map of coastal stations | Coastal observations for NSW | Marine services | Other Formats
Station Details ID: 061412 Name: LAKE MACQUARIE AWS Lat: -33.09 Lon: 151.46 Height: 6.0 m
Data from the previous 72 hours. | See also: Recent months at Lake Macquarie - Cooranbong
Date/Time
EST
Temp

°C
Wind Pressure Rain
since 9am
mm
Weather Cloud Vis
km
Sea
Height
m
Swell
Dir
 
Speed
knots
Gust
knots
hPa Trend Height
m
Period
s
Dir
30/04:00pm 16.5 SW 5 8 1021.1 - 0.0 - - - - - - -
30/03:30pm 16.9 WSW 4 8 1021.2 - 0.0 - - - - - - -
30/03:00pm 16.8 WSW 4 8 1021.2 - 0.0 - - - - - - -
30/02:30pm 16.0 SW 5 9 1021.5 - 0.0 - - - - - - -
30/02:00pm 16.9 SW 6 12 1021.4 - 0.0 - - - - - - -
30/01:30pm 16.8 WSW 6 12 1021.6 - 0.0 - - - - - - -
30/01:00pm 16.5 SW 4 9 1021.8 - 0.0 - - - - - - -
30/12:30pm 16.1 SW 8 15 1021.9 - 0.0 - - - - - - -
30/12:00pm 15.8 SSW 6 13 1022.3 - 0.0 - - - - - - -
30/11:30am 16.3 SW 4 11 1022.5 - 0.0 - - - - - - -
30/11:00am 15.8 SW 6 12 1022.9 - 0.0 - - - - - - -
30/10:30am 15.0 SW 6 12 1023.1 - 0.0 - - - - - - -
30/10:00am 14.6 SW 5 10 1023.1 - 0.0 - - - - - - -
30/09:30am 14.3 SW 7 15 1023.0 - 0.0 - - - - - - -
30/09:00am 13.7 WSW 6 12 1023.2 - 0.0 - - - - - - -
30/08:30am 13.6 SW 5 13 1023.2 - 0.0 - - - - - - -
30/08:00am 13.5 SSW 4 10 1023.0 - 0.0 - - - - - - -
30/07:30am 13.4 SW 6 13 1022.9 - 0.0 - - - - - - -
30/07:00am 13.2 WSW 5 11 1022.8 - 0.0 - - - - - - -
30/06:30am 13.1 SW 3 9 1022.6 - 0.0 - - - - - - -
30/06:00am 12.8 SSW 4 7 1022.3 - 0.0 - - - - - - -
30/05:30am 12.8 SW 4 10 1022.2 - 0.0 - - - - - - -
30/05:00am 13.2 SW 6 15 1021.9 - 0.0 - - - - - - -
30/04:30am 13.2 SW 4 9 1021.9 - 0.0 - - - - - - -
30/04:00am 13.2 SW 6 11 1021.9 - 0.0 - - - - - - -
30/03:30am 13.3 WSW 5 10 1021.8 - 0.0 - - - - - - -
30/03:00am 13.3 SW 4 8 1021.9 - 0.0 - - - - - - -
30/02:30am 13.3 SW 6 13 1022.2 - 0.0 - - - - - - -
30/02:00am 13.4 SW 6 12 1022.4 - 0.0 - - - - - - -
30/01:30am 13.4 SW 4 11 1022.7 - 0.0 - - - - - - -
30/01:00am 13.6 SW 6 12 1022.9 - 0.0 - - - - - - -
30/12:30am 13.5 SW 4 12 1023.2 - 0.0 - - - - - - -
30/12:00am 13.4 SSW 3 8 1023.4 - 0.0 - - - - - - -
 
Date/Time
EST
Temp

°C
Wind Pressure Rain
since 9am
mm
Weather Cloud Vis
km
Sea
Height
m
Swell
Dir
 
Speed
knots
Gust
knots
hPa Trend Height
m
Period
s
Dir
29/11:30pm 13.7 SW 6 13 1023.4 - 0.0 - - - - - - -
29/11:00pm 13.7 SW 6 13 1023.5 - 0.0 - - - - - - -
29/10:30pm 13.7 SW 5 14 1023.7 - 0.0 - - - - - - -
29/10:00pm 13.4 WSW 6 12 1023.8 - 0.0 - - - - - - -
29/09:30pm 13.3 SW 5 11 1023.9 - 0.0 - - - - - - -
29/09:00pm 13.4 SW 4 10 1024.2 - 0.0 - - - - - - -
29/08:30pm 13.4 SW 4 9 1024.1 - 0.0 - - - - - - -
29/08:00pm 13.8 SW 3 8 1024.2 - 0.0 - - - - - - -
29/07:30pm 13.8 SW 4 11 1024.2 - 0.0 - - - - - - -
29/07:00pm 13.9 SW 4 8 1024.0 - 0.0 - - - - - - -
29/06:30pm 14.2 SSW 4 9 1023.9 - 0.0 - - - - - - -
29/06:00pm 14.5 SW 3 6 1023.7 - 0.0 - - - - - - -
29/05:30pm 15.1 S 3 7 1023.5 - 0.0 - - - - - - -
29/05:00pm 15.4 S 3 5 1023.3 - 0.0 - - - - - - -
29/04:30pm 15.8 S 7 14 1023.3 - 0.0 - - - - - - -
29/04:00pm 15.8 S 4 11 1023.3 - 0.0 - - - - - - -
29/03:30pm 16.1 S 6 17 1023.1 - 0.0 - - - - - - -
29/03:00pm 17.4 SW 6 12 1023.3 - 0.0 - - - - - - -
29/02:30pm 16.6 SSW 7 12 1023.7 - 0.0 - - - - - - -
29/02:00pm 16.6 SW 6 14 1024.0 - 0.0 - - - - - - -
29/01:30pm 15.0 SSW 6 14 1024.2 - 0.0 - - - - - - -
29/01:00pm 16.6 SW 6 13 1024.3 - 0.0 - - - - - - -
29/12:30pm 15.6 SW 4 7 1024.8 - 0.0 - - - - - - -
29/12:00pm 15.9 SW 5 9 1025.0 - 0.0 - - - - - - -
29/11:30am 15.9 SSW 5 10 1025.5 - 0.0 - - - - - - -
29/11:00am 15.7 SW 6 14 1025.7 - 0.0 - - - - - - -
29/10:30am 14.9 SW 6 12 1026.1 - 0.0 - - - - - - -
29/10:00am 14.9 W 5 8 1026.1 - 0.0 - - - - - - -
29/09:30am 14.8 SW 6 13 1026.6 - 0.0 - - - - - - -
29/09:00am 14.4 SW 5 10 1026.6 - 0.8 Recent precip. - - - - - -
29/08:30am 13.3 SW 4 8 1026.7 - 0.6 - - - - - - -
29/08:00am 12.6 SW 3 8 1026.5 - 0.6 - - - - - - -
29/07:30am 11.4 SW 2 3 1026.3 - 0.6 - - - - - - -
29/07:00am 11.1 WSW 2 4 1026.2 - 0.6 - - - - - - -
29/06:30am 11.2 WSW 3 6 1025.9 - 0.6 - - - - - - -
29/06:00am 11.0 WSW 4 7 1025.5 - 0.6 - - - - - - -
29/05:30am 10.9 WSW 3 6 1025.4 - 0.6 - - - - - - -
29/05:00am 10.9 WSW 3 5 1025.3 - 0.6 - - - - - - -
29/04:30am 11.2 WSW 3 5 1025.2 - 0.6 - - - - - - -
29/04:00am 11.1 WSW 2 4 1025.3 - 0.6 - - - - - - -
29/03:30am 11.0 WSW 2 5 1025.3 - 0.6 - - - - - - -
29/03:00am 10.7 WSW 2 5 1025.4 - 0.6 - - - - - - -
29/02:30am 11.0 WSW 3 6 1025.7 - 0.6 - - - - - - -
29/02:00am 10.6 SW 3 5 1026.0 - 0.6 - - - - - - -
29/01:30am 9.5 SSW 1 3 1026.2 - 0.6 - - - - - - -
29/01:00am 9.3 SW 2 3 1026.5 - 0.6 - - - - - - -
29/12:30am 9.2 SW 1 2 1026.7 - 0.6 - - - - - - -
29/12:00am 9.5 CALM 0 0 1026.8 - 0.6 - - - - - - -
 
Date/Time
EST
Temp

°C
Wind Pressure Rain
since 9am
mm
Weather Cloud Vis
km
Sea
Height
m
Swell
Dir
 
Speed
knots
Gust
knots
hPa Trend Height
m
Period
s
Dir
28/11:30pm 9.8 CALM 0 2 1026.9 - 0.6 - - - - - - -
28/11:00pm 9.4 S 1 2 1027.1 - 0.6 - - - - - - -
28/10:30pm 9.8 CALM 0 4 1027.2 - 0.6 - - - - - - -
28/10:00pm 10.7 WSW 2 4 1027.3 - 0.6 - - - - - - -
28/09:30pm 11.5 SW 2 6 1027.5 - 0.6 - - - - - - -
28/09:00pm 10.5 SW 1 2 1027.4 - 0.6 - - - - - - -
28/08:30pm 11.0 WSW 1 3 1027.2 - 0.6 - - - - - - -
28/08:00pm 11.1 SSW 1 3 1027.0 - 0.6 - - - - - - -
28/07:30pm 11.5 SW 1 2 1027.0 - 0.6 - - - - - - -
28/07:00pm 11.3 WSW 2 4 1026.8 - 0.6 - - - - - - -
28/06:30pm 11.9 CALM 0 0 1026.6 - 0.6 - - - - - - -
28/06:00pm 13.2 CALM 0 3 1026.4 - 0.6 - - - - - - -
28/05:30pm 14.6 S 3 5 1026.2 - 0.6 - - - - - - -
28/05:00pm 15.7 S 4 8 1025.9 - 0.6 - - - - - - -
28/04:30pm 16.9 SSE 7 16 1025.7 - 0.6 - - - - - - -
28/04:00pm 16.9 S 6 13 1025.4 - 0.6 - - - - - - -
28/03:30pm 17.9 SSE 6 13 1025.1 - 0.6 - - - - - - -
28/03:00pm 17.4 S 5 13 1024.8 - 0.6 - - - - - - -
28/02:30pm 16.7 S 4 7 1024.8 - 0.6 - - - - - - -
28/02:00pm 17.9 SSE 6 16 1024.6 - 0.6 - - - - - - -
28/01:30pm 17.6 SE 8 14 1024.7 - 0.6 - - - - - - -
28/01:00pm 18.2 SSE 6 14 1024.7 - 0.6 - - - - - - -
28/12:30pm 18.3 SSE 6 15 1024.9 - 0.6 - - - - - - -
28/12:00pm 15.5 S 4 6 1025.5 - 0.6 Rain - - - - - -
28/11:30am 17.6 S 6 11 1025.5 - 0.4 - - - - - - -
28/11:00am 18.2 SSE 7 14 1025.7 - 0.4 - - - - - - -
28/10:30am 16.1 SE 4 7 1026.0 - 0.4 - - - - - - -
28/10:00am 16.9 ESE 1 2 1025.8 - 0.2 - - - - - - -
28/09:30am 15.9 WSW 3 6 1025.8 - 0.0 - - - - - - -
28/09:00am 15.6 SSW 4 6 1025.9 - 16.2 - - - - - - -
28/08:30am 14.7 SSW 3 8 1025.9 - 16.2 - - - - - - -
28/08:00am 13.3 SW 3 7 1025.7 - 16.2 - - - - - - -
28/07:30am 12.6 SW 4 8 1025.2 - 16.0 - - - - - - -
28/07:00am 11.9 WSW 2 2 1025.1 - 16.0 - - - - - - -
28/06:30am 12.2 SW 2 2 1025.1 - 16.0 - - - - - - -
28/06:00am 12.2 S 2 5 1025.0 - 16.0 Rain - - - - - -
28/05:30am 12.0 WSW 3 6 1024.2 - 13.4 - - - - - - -
28/05:00am 12.0 S 2 4 1024.2 - 13.4 - - - - - - -
28/04:30am 11.8 SW 1 3 1024.1 - 11.0 - - - - - - -
28/04:00am 11.8 S 2 3 1023.9 - 10.8 - - - - - - -
28/03:30am 11.7 SSW 2 3 1023.9 - 10.4 - - - - - - -
28/03:00am 11.8 SW 3 6 1024.0 - 10.4 Recent precip. - - - - - -
28/02:30am 11.6 SSW 2 5 1023.9 - 10.2 - - - - - - -
28/02:00am 11.9 SW 3 5 1024.1 - 10.2 - - - - - - -
28/01:30am 11.9 SW 2 4 1024.6 - 10.2 - - - - - - -
28/01:00am 11.9 SSE 4 8 1025.0 - 9.8 - - - - - - -
28/12:30am 12.3 SW 4 8 1024.5 - 7.4 - - - - - - -
28/12:00am 12.3 SW 3 8 1024.8 - 7.4 - - - - - - -
 
Date/Time
EST
Temp

°C
Wind Pressure Rain
since 9am
mm
Weather Cloud Vis
km
Sea
Height
m
Swell
Dir
 
Speed
knots
Gust
knots
hPa Trend Height
m
Period
s
Dir
27/11:30pm 12.2 SW 3 7 1024.9 - 7.4 - - - - - - -
27/11:00pm 12.7 SW 3 7 1025.1 - 7.4 - - - - - - -
27/10:30pm 13.6 SW 2 5 1024.9 - 7.0 - - - - - - -
27/10:00pm 13.6 SW 3 6 1024.9 - 7.0 - - - - - - -
27/09:30pm 13.3 SW 2 4 1025.1 - 7.0 - - - - - - -
27/09:00pm 13.2 SW 3 6 1024.9 - 7.0 Recent precip. - - - - - -
27/08:30pm 13.3 SW 3 7 1024.9 - 6.6 - - - - - - -
27/08:00pm 13.2 SSW 3 8 1025.0 - 6.6 - - - - - - -
27/07:30pm 13.9 SSE 6 11 1025.0 - 6.4 - - - - - - -
27/07:00pm 13.9 S 3 8 1024.5 - 6.4 - - - - - - -
27/06:30pm 13.8 S 4 7 1024.4 - 6.4 - - - - - - -
27/06:00pm 13.8 SSE 7 16 1024.1 - 6.4 Rain - - - - - -
27/05:30pm 15.2 S 3 7 1023.6 - 5.6 - - - - - - -
27/05:00pm 14.6 S 2 4 1023.4 - 5.6 - - - - - - -
27/04:30pm 14.5 SW 1 2 1023.1 - 5.6 - - - - - - -

Other Formats:

Comma delimited format used in spreadsheet applications
http://www.bom.gov.au/fwo/IDN60701/IDN60701.95767.axf

JavaScript Object Notation format (JSON) in row-major order
http://www.bom.gov.au/fwo/IDN60701/IDN60701.95767.json